Time;durP1;ratioP1;P1;durP2;ratioP2;P2;SDS_P1;SDS_P2;PMS_P1;PMS_P2;Temp;Humidity;BMP_temperature;BMP_pressure;BME280_temperature;BME280_humidity;BME280_pressure;Samples;Min_cycle;Max_cycle;Signal;HPM_P1;HPM_P2
2021/07/13 00:00:24;;;;;;;4.90;2.33;;;21.40;91.90;;;;;;5054603;28;20192;-85
2021/07/13 00:02:50;;;;;;;5.80;2.10;;;21.20;92.20;;;;;;5055004;28;20439;-85
2021/07/13 00:05:18;;;;;;;3.97;1.92;;;21.20;92.40;;;;;;5054788;28;20180;-85
2021/07/13 00:07:46;;;;;;;3.53;1.45;;;;;;;;;;5055381;28;20176;-85
2021/07/13 00:10:14;;;;;;;6.43;2.17;;;21.10;92.20;;;;;;5055118;28;20224;-85
2021/07/13 00:12:40;;;;;;;4.70;1.67;;;21.10;92.00;;;;;;5055098;28;20661;-85
2021/07/13 00:15:13;;;;;;;4.53;1.88;;;21.00;91.90;;;;;;5054990;28;20243;-86
2021/07/13 00:17:40;;;;;;;3.53;2.05;;;21.00;91.50;;;;;;5054803;28;20176;-85
2021/07/13 00:20:06;;;;;;;3.10;1.60;;;21.00;91.50;;;;;;5054753;28;20679;-85
2021/07/13 00:22:33;;;;;;;4.70;1.83;;;21.00;91.40;;;;;;5054598;28;20669;-85
2021/07/13 00:24:59;;;;;;;4.35;1.23;;;20.90;91.60;;;;;;5054623;28;20173;-85
2021/07/13 00:27:24;;;;;;;6.28;1.80;;;21.00;91.40;;;;;;5054582;28;20515;-85
2021/07/13 00:29:50;;;;;;;2.60;1.37;;;21.00;91.40;;;;;;5054132;28;20203;-85
2021/07/13 00:32:16;;;;;;;2.70;1.40;;;21.00;91.20;;;;;;5054432;28;20535;-85
2021/07/13 00:34:42;;;;;;;3.73;1.50;;;21.00;91.10;;;;;;5054715;28;20419;-85
2021/07/13 00:37:08;;;;;;;3.47;1.60;;;21.00;91.10;;;;;;5054490;28;20169;-85
2021/07/13 00:39:33;;;;;;;2.53;1.53;;;20.90;91.10;;;;;;5054453;28;20914;-86
2021/07/13 00:41:59;;;;;;;3.17;1.70;;;21.00;91.20;;;;;;5054610;28;20246;-85
2021/07/13 00:44:25;;;;;;;4.20;1.40;;;20.90;91.40;;;;;;5054499;28;20185;-85
2021/07/13 00:46:51;;;;;;;2.97;1.33;;;20.90;91.80;;;;;;5055651;28;20165;-85
2021/07/13 00:49:18;;;;;;;3.95;1.65;;;20.80;92.00;;;;;;5054278;28;20458;-85
2021/07/13 00:51:44;;;;;;;3.58;1.85;;;20.70;92.30;;;;;;5054075;28;20665;-85
2021/07/13 00:54:11;;;;;;;2.80;1.15;;;20.70;92.40;;;;;;5054354;28;20165;-86
2021/07/13 00:56:40;;;;;;;4.90;1.25;;;20.70;92.40;;;;;;5054005;28;20169;-85
2021/07/13 00:59:06;;;;;;;2.95;1.83;;;20.70;92.50;;;;;;5053922;28;20179;-86
2021/07/13 01:01:33;;;;;;;11.82;2.42;;;20.70;92.70;;;;;;5053539;28;20213;-85
2021/07/13 01:04:00;;;;;;;5.18;1.75;;;;;;;;;;5053532;28;20226;-86
2021/07/13 01:06:36;;;;;;;2.85;1.50;;;20.60;93.00;;;;;;5053309;28;20184;-86
2021/07/13 01:09:13;;;;;;;7.60;2.00;;;20.60;93.00;;;;;;5053513;28;20291;-86
2021/07/13 01:11:56;;;;;;;4.10;2.45;;;20.60;94.00;;;;;;5053038;28;20188;-85
2021/07/13 01:14:27;;;;;;;5.93;2.28;;;20.50;94.20;;;;;;5052472;28;20165;-86
2021/07/13 01:17:00;;;;;;;7.18;2.50;;;20.50;94.70;;;;;;5052960;28;20176;-85
2021/07/13 01:19:29;;;;;;;4.97;2.25;;;20.50;95.20;;;;;;5053103;28;20174;-86
2021/07/13 01:22:02;;;;;;;4.53;2.45;;;20.40;95.30;;;;;;5053195;28;20192;-85
2021/07/13 01:24:46;;;;;;;4.32;2.67;;;20.50;95.20;;;;;;5052781;28;20234;-85
2021/07/13 01:27:27;;;;;;;4.70;2.35;;;20.50;95.20;;;;;;5052609;28;20630;-87
2021/07/13 01:29:54;;;;;;;6.07;2.50;;;20.50;95.50;;;;;;5053110;28;20201;-85
2021/07/13 01:32:28;;;;;;;5.32;2.65;;;20.50;95.70;;;;;;5052789;28;20189;-85
2021/07/13 01:35:03;;;;;;;3.47;2.20;;;20.50;95.80;;;;;;5052681;28;20169;-86
2021/07/13 01:37:31;;;;;;;4.90;2.20;;;20.50;95.80;;;;;;5052757;28;20164;-85
2021/07/13 01:39:58;;;;;;;7.10;3.85;;;20.50;96.00;;;;;;5052948;28;20195;-85
2021/07/13 01:42:25;;;;;;;5.78;2.08;;;20.40;96.10;;;;;;5052647;28;20204;-85
2021/07/13 01:44:52;;;;;;;9.38;2.25;;;20.40;96.40;;;;;;5052681;28;20267;-85
2021/07/13 01:47:19;;;;;;;12.65;2.05;;;20.30;96.70;;;;;;5053674;28;20227;-85
2021/07/13 01:49:46;;;;;;;3.85;2.15;;;20.30;97.00;;;;;;5053116;28;20220;-85
2021/07/13 01:52:14;;;;;;;9.93;2.50;;;20.30;97.40;;;;;;5052775;28;20185;-85
2021/07/13 01:54:42;;;;;;;2.33;1.70;;;20.20;97.80;;;;;;5052608;28;20185;-85
2021/07/13 01:57:08;;;;;;;4.30;2.08;;;20.20;97.90;;;;;;5052447;28;20185;-85
2021/07/13 01:59:35;;;;;;;7.78;1.67;;;20.00;98.40;;;;;;5053028;28;20547;-86
2021/07/13 02:02:03;;;;;;;6.60;2.80;;;19.90;99.10;;;;;;5052842;28;20197;-85
2021/07/13 02:04:34;;;;;;;9.32;1.92;;;20.00;99.10;;;;;;5052874;28;20222;-86
2021/07/13 02:07:02;;;;;;;6.20;2.40;;;19.90;99.10;;;;;;5052602;28;20184;-86
2021/07/13 02:09:28;;;;;;;2.60;1.75;;;20.00;99.10;;;;;;5052990;28;20197;-86
2021/07/13 02:11:56;;;;;;;4.15;2.00;;;19.90;99.10;;;;;;5052909;28;20750;-86
2021/07/13 02:14:23;;;;;;;5.80;1.95;;;19.90;99.10;;;;;;5053898;28;20580;-84
2021/07/13 02:16:49;;;;;;;8.13;2.13;;;19.80;99.10;;;;;;5053230;28;20557;-85
2021/07/13 02:19:15;;;;;;;2.10;1.98;;;19.70;99.10;;;;;;5053323;28;20544;-85
2021/07/13 02:21:42;;;;;;;5.60;2.22;;;19.70;99.10;;;;;;5052974;28;20280;-85
2021/07/13 02:24:08;;;;;;;4.22;2.05;;;19.80;99.10;;;;;;5054323;28;20205;-85
2021/07/13 02:26:43;;;;;;;3.30;1.77;;;19.80;99.10;;;;;;5056844;28;20222;-84
2021/07/13 02:29:16;;;;;;;2.83;1.75;;;19.70;99.10;;;;;;5057110;28;20197;-85
2021/07/13 02:31:46;;;;;;;5.32;2.22;;;19.60;99.10;;;;;;5056566;28;20542;-85
2021/07/13 02:34:15;;;;;;;8.70;1.75;;;19.60;99.10;;;;;;5056754;28;20173;-86
2021/07/13 02:36:45;;;;;;;8.10;1.75;;;19.60;99.10;;;;;;5056359;28;20209;-85
2021/07/13 02:39:13;;;;;;;3.55;1.90;;;19.60;99.10;;;;;;5056962;28;20185;-85
2021/07/13 02:41:41;;;;;;;6.15;2.00;;;19.60;99.10;;;;;;5056984;28;20216;-85
2021/07/13 02:44:09;;;;;;;9.95;1.90;;;19.60;99.10;;;;;;5056982;28;20180;-86
2021/07/13 02:46:41;;;;;;;7.32;1.73;;;19.70;99.10;;;;;;5056780;28;20170;-85
2021/07/13 02:49:09;;;;;;;4.05;1.63;;;19.70;99.10;;;;;;5056355;28;20739;-85
2021/07/13 02:51:36;;;;;;;2.67;1.90;;;19.70;99.10;;;;;;5057495;28;20299;-86
2021/07/13 02:54:05;;;;;;;7.20;2.10;;;19.60;99.10;;;;;;5056327;28;20176;-86
2021/07/13 02:56:34;;;;;;;5.43;1.85;;;19.60;99.10;;;;;;5055774;28;20696;-86
2021/07/13 02:59:01;;;;;;;4.78;2.15;;;19.70;99.10;;;;;;5056424;28;20183;-86
2021/07/13 03:01:29;;;;;;;9.27;1.90;;;19.70;99.10;;;;;;5056027;28;20641;-86
2021/07/13 03:03:57;;;;;;;4.93;1.88;;;19.70;99.10;;;;;;5056104;28;20173;-86
2021/07/13 03:06:23;;;;;;;5.30;1.85;;;19.70;99.10;;;;;;5056189;28;20173;-85
2021/07/13 03:08:49;;;;;;;3.42;2.55;;;19.70;99.10;;;;;;5056045;28;20821;-86
2021/07/13 03:11:15;;;;;;;3.63;2.13;;;19.80;99.10;;;;;;5055696;28;20185;-86
2021/07/13 03:13:42;;;;;;;4.82;2.03;;;19.80;99.10;;;;;;5056314;28;20170;-86
2021/07/13 03:16:10;;;;;;;4.82;1.83;;;19.90;99.10;;;;;;5055849;28;20169;-86
2021/07/13 03:18:36;;;;;;;5.88;1.85;;;19.90;99.10;;;;;;5055833;28;20243;-86
2021/07/13 03:21:03;;;;;;;4.50;2.05;;;19.90;99.10;;;;;;5056110;28;20173;-86
2021/07/13 03:23:34;;;;;;;6.60;2.60;;;19.90;99.10;;;;;;5055793;28;20189;-85
2021/07/13 03:26:02;;;;;;;12.88;3.03;;;19.90;99.10;;;;;;5055518;28;20204;-86
2021/07/13 03:28:29;;;;;;;6.63;2.88;;;20.00;99.10;;;;;;5055657;28;20196;-86
2021/07/13 03:30:56;;;;;;;4.47;2.28;;;20.00;99.10;;;;;;5055776;28;20645;-86
2021/07/13 03:33:22;;;;;;;5.40;2.30;;;20.10;99.10;;;;;;5055686;28;20540;-86
2021/07/13 03:35:55;;;;;;;6.75;2.92;;;20.10;99.10;;;;;;5054271;28;20169;-86
2021/07/13 03:38:21;;;;;;;8.20;2.55;;;20.10;99.10;;;;;;5055811;28;20230;-86
2021/07/13 03:40:48;;;;;;;7.70;2.78;;;20.20;99.10;;;;;;5055412;28;20173;-86
2021/07/13 03:43:15;;;;;;;5.10;2.35;;;20.10;99.10;;;;;;5055347;28;20197;-86
2021/07/13 03:45:41;;;;;;;8.52;3.22;;;20.20;99.10;;;;;;5055638;28;20180;-86
2021/07/13 03:48:10;;;;;;;7.50;2.72;;;20.20;99.10;;;;;;5054948;28;20637;-86
2021/07/13 03:50:37;;;;;;;5.57;2.90;;;20.30;99.10;;;;;;5055563;28;20169;-86
2021/07/13 03:53:04;;;;;;;8.02;3.00;;;20.20;99.10;;;;;;5055247;28;20193;-86
2021/07/13 03:55:31;;;;;;;9.13;4.07;;;20.20;99.10;;;;;;5055112;28;20536;-85
2021/07/13 03:57:57;;;;;;;5.35;2.70;;;20.20;99.10;;;;;;5055126;28;20187;-85
2021/07/13 04:00:27;;;;;;;10.10;3.15;;;20.10;99.10;;;;;;5054881;28;20222;-86
2021/07/13 04:02:53;;;;;;;6.88;2.95;;;19.90;99.10;;;;;;5054904;28;20247;-86
2021/07/13 04:05:19;;;;;;;7.40;3.20;;;19.90;99.10;;;;;;5054528;28;20187;-87
2021/07/13 04:07:45;;;;;;;13.40;3.00;;;19.90;99.10;;;;;;5054918;28;20276;-86
2021/07/13 04:10:13;;;;;;;4.75;3.60;;;19.90;99.10;;;;;;5054996;28;20460;-86
2021/07/13 04:12:40;;;;;;;18.75;3.53;;;19.90;99.10;;;;;;5054844;28;20185;-87
2021/07/13 04:15:07;;;;;;;7.43;4.07;;;19.90;99.10;;;;;;5054392;28;20222;-86
2021/07/13 04:17:33;;;;;;;5.50;3.70;;;19.90;99.10;;;;;;5054434;28;20169;-86
2021/07/13 04:20:03;;;;;;;7.27;3.13;;;19.90;99.10;;;;;;5055117;28;20180;-86
2021/07/13 04:22:29;;;;;;;8.18;4.75;;;19.80;99.10;;;;;;5055120;28;20594;-87
2021/07/13 04:24:54;;;;;;;8.57;4.20;;;19.70;99.10;;;;;;5054399;28;20201;-87
2021/07/13 04:27:20;;;;;;;10.50;3.80;;;19.70;99.10;;;;;;5054563;28;20223;-86
2021/07/13 04:29:46;;;;;;;10.50;4.40;;;19.70;99.10;;;;;;5054441;28;20207;-86
2021/07/13 04:32:12;;;;;;;13.20;4.43;;;19.70;99.10;;;;;;5054312;28;20216;-86
2021/07/13 04:34:37;;;;;;;10.47;5.70;;;19.70;99.10;;;;;;5054612;28;20169;-86
2021/07/13 04:37:03;;;;;;;13.40;5.10;;;19.70;99.10;;;;;;5054657;28;20165;-86
2021/07/13 04:39:29;;;;;;;10.80;4.50;;;19.70;99.10;;;;;;5054337;28;20177;-86
2021/07/13 04:41:55;;;;;;;10.33;5.53;;;19.70;99.10;;;;;;5054591;28;20442;-86
2021/07/13 04:44:21;;;;;;;9.90;4.40;;;19.80;99.10;;;;;;5054179;28;20173;-86
2021/07/13 04:46:47;;;;;;;12.17;4.83;;;19.90;99.10;;;;;;5054091;28;20494;-86
2021/07/13 04:49:13;;;;;;;8.02;4.10;;;19.90;99.10;;;;;;5053120;28;20542;-86
2021/07/13 04:51:39;;;;;;;7.87;4.30;;;20.00;99.10;;;;;;5053316;28;20247;-86
2021/07/13 04:54:05;;;;;;;15.02;5.32;;;20.10;99.10;;;;;;5053344;28;20408;-86
2021/07/13 04:56:31;;;;;;;10.43;5.20;;;20.10;99.10;;;;;;5052991;28;20191;-86
2021/07/13 04:58:57;;;;;;;6.90;4.30;;;20.10;99.10;;;;;;5053053;28;20180;-85
2021/07/13 05:01:23;;;;;;;8.18;5.35;;;20.10;99.10;;;;;;5053030;28;20237;-84
2021/07/13 05:03:49;;;;;;;8.82;4.15;;;20.10;99.10;;;;;;5052889;28;20177;-85
2021/07/13 05:06:15;;;;;;;7.33;4.13;;;20.00;99.10;;;;;;5052950;28;20173;-85
2021/07/13 05:08:42;;;;;;;6.25;3.72;;;20.00;99.10;;;;;;5053320;28;20455;-85
2021/07/13 05:11:10;;;;;;;8.68;2.97;;;20.00;99.10;;;;;;5053082;28;20172;-84
2021/07/13 05:13:37;;;;;;;5.80;3.30;;;20.10;99.10;;;;;;5053099;28;20542;-86
2021/07/13 05:16:03;;;;;;;9.63;3.38;;;20.20;99.10;;;;;;5052794;28;20204;-84
2021/07/13 05:18:29;;;;;;;7.85;3.30;;;20.30;99.10;;;;;;5052804;28;20173;-84
2021/07/13 05:21:00;;;;;;;4.77;3.20;;;20.40;99.10;;;;;;5052417;28;20943;-84
2021/07/13 05:23:26;;;;;;;6.65;3.50;;;20.50;99.10;;;;;;5052266;28;20424;-84
2021/07/13 05:25:52;;;;;;;5.47;2.67;;;20.60;99.10;;;;;;5052981;28;20326;-84
2021/07/13 05:28:18;;;;;;;6.45;3.25;;;20.70;99.10;;;;;;5052431;28;20185;-84
2021/07/13 05:30:45;;;;;;;5.10;2.35;;;20.80;98.70;;;;;;5052798;28;20641;-84
2021/07/13 05:33:12;;;;;;;4.03;2.40;;;20.80;97.70;;;;;;5055495;28;20283;-84
2021/07/13 05:35:38;;;;;;;4.50;2.47;;;20.80;97.80;;;;;;5056560;28;20629;-83
2021/07/13 05:38:05;;;;;;;6.25;2.75;;;20.80;97.90;;;;;;5066042;28;20663;-83
2021/07/13 05:40:31;;;;;;;7.00;2.80;;;20.80;98.30;;;;;;5076825;28;20629;-83
2021/07/13 05:42:57;;;;;;;6.47;2.60;;;20.80;98.50;;;;;;5074694;28;20203;-83
2021/07/13 05:45:24;;;;;;;3.80;2.63;;;20.80;98.60;;;;;;5075054;28;20540;-83
2021/07/13 05:47:50;;;;;;;3.83;2.40;;;20.80;97.40;;;;;;5075514;28;20174;-83
2021/07/13 05:50:16;;;;;;;8.13;2.70;;;20.60;98.00;;;;;;5075581;28;20687;-83
2021/07/13 05:52:42;;;;;;;10.63;3.27;;;20.60;98.30;;;;;;5075730;28;20196;-83
2021/07/13 05:55:08;;;;;;;3.58;2.60;;;20.70;99.10;;;;;;5075930;28;20891;-83
2021/07/13 05:57:35;;;;;;;5.65;2.58;;;20.70;99.10;;;;;;5075569;28;20218;-83
2021/07/13 06:00:03;;;;;;;3.05;2.25;;;20.80;98.60;;;;;;5078943;28;20550;-83
2021/07/13 06:02:29;;;;;;;5.60;2.83;;;20.80;98.20;;;;;;5079949;28;20197;-83
2021/07/13 06:04:54;;;;;;;7.00;3.08;;;20.90;97.80;;;;;;5079427;28;20200;-83
2021/07/13 06:07:20;;;;;;;6.57;3.10;;;20.90;97.70;;;;;;5080149;28;20521;-83
2021/07/13 06:09:46;;;;;;;7.57;2.93;;;20.90;98.50;;;;;;5079820;28;20545;-83
2021/07/13 06:12:12;;;;;;;10.83;2.70;;;20.90;99.10;;;;;;5079287;28;20185;-83
2021/07/13 06:14:37;;;;;;;10.33;3.60;;;20.80;99.10;;;;;;5077885;28;20172;-83
2021/07/13 06:17:07;;;;;;;6.73;3.63;;;20.80;99.10;;;;;;5078520;28;20205;-83
2021/07/13 06:19:34;;;;;;;4.47;2.78;;;20.70;99.10;;;;;;5079186;28;20172;-83
2021/07/13 06:22:01;;;;;;;7.28;3.35;;;20.70;99.10;;;;;;5078096;28;20401;-83
2021/07/13 06:24:27;;;;;;;5.78;2.90;;;20.70;99.10;;;;;;5078670;28;20172;-83
2021/07/13 06:26:52;;;;;;;8.60;3.00;;;20.80;99.10;;;;;;5078429;28;20179;-83
2021/07/13 06:29:18;;;;;;;9.57;3.03;;;20.80;99.10;;;;;;5078501;28;20456;-83
2021/07/13 06:31:44;;;;;;;10.17;2.90;;;20.80;99.10;;;;;;5078573;28;20427;-83
2021/07/13 06:34:11;;;;;;;6.77;4.23;;;20.90;99.10;;;;;;5078528;28;21055;-83
2021/07/13 06:36:37;;;;;;;6.00;2.92;;;20.90;99.10;;;;;;5078239;28;20403;-83
2021/07/13 06:39:04;;;;;;;6.82;3.58;;;20.90;99.10;;;;;;5078457;28;20218;-83
2021/07/13 06:41:29;;;;;;;4.32;2.70;;;20.80;98.70;;;;;;5079524;28;20690;-83
2021/07/13 06:43:55;;;;;;;4.07;2.87;;;20.90;98.50;;;;;;5078060;28;20177;-83
2021/07/13 06:46:21;;;;;;;5.97;2.87;;;20.90;98.30;;;;;;5078337;28;20699;-83
2021/07/13 06:48:47;;;;;;;7.10;3.60;;;20.90;98.60;;;;;;5077857;28;20489;-83
2021/07/13 06:51:13;;;;;;;5.70;3.10;;;20.90;98.20;;;;;;5078284;28;20173;-83
2021/07/13 06:53:39;;;;;;;6.05;3.47;;;21.00;98.50;;;;;;5078168;28;20406;-83
2021/07/13 06:56:04;;;;;;;5.80;3.47;;;21.00;99.10;;;;;;5078268;28;20172;-83
2021/07/13 06:58:30;;;;;;;3.17;2.13;;;21.00;99.00;;;;;;5078443;28;20196;-83
2021/07/13 07:00:56;;;;;;;5.43;2.93;;;21.00;99.00;;;;;;5077720;28;20497;-83
2021/07/13 07:03:22;;;;;;;5.10;3.13;;;21.00;98.80;;;;;;5077198;28;20845;-83
2021/07/13 07:05:47;;;;;;;5.83;3.17;;;21.00;98.90;;;;;;5076938;28;20591;-83
2021/07/13 07:08:13;;;;;;;5.60;2.83;;;21.10;99.10;;;;;;5077978;28;20172;-83
2021/07/13 07:10:39;;;;;;;6.23;3.13;;;21.10;99.10;;;;;;5076610;28;20176;-83
2021/07/13 07:13:05;;;;;;;4.20;3.20;;;21.10;98.90;;;;;;5078413;28;20215;-83
2021/07/13 07:15:31;;;;;;;7.70;3.30;;;21.10;99.10;;;;;;5078863;28;20268;-83
2021/07/13 07:17:56;;;;;;;3.50;2.63;;;21.20;99.00;;;;;;5078387;28;20455;-83
2021/07/13 07:20:28;;;;;;;5.67;2.60;;;21.20;98.30;;;;;;5078228;28;20760;-83
2021/07/13 07:22:58;;;;;;;5.90;3.10;;;21.10;98.50;;;;;;5078755;28;20204;-84
2021/07/13 07:25:27;;;;;;;6.93;2.95;;;21.10;97.70;;;;;;5078438;28;20180;-83
2021/07/13 07:27:55;;;;;;;4.55;2.92;;;21.10;98.50;;;;;;5078371;28;20632;-83
2021/07/13 07:30:22;;;;;;;6.85;3.22;;;21.10;98.90;;;;;;5078018;28;20660;-83
2021/07/13 07:32:48;;;;;;;8.27;3.05;;;21.10;98.00;;;;;;5078311;28;20656;-83
2021/07/13 07:35:14;;;;;;;4.67;3.00;;;21.00;98.30;;;;;;5078016;28;20200;-83
2021/07/13 07:37:41;;;;;;;6.78;3.95;;;21.00;98.70;;;;;;5077978;28;20403;-83
2021/07/13 07:40:10;;;;;;;7.28;2.92;;;21.00;98.80;;;;;;5078064;28;20239;-83
2021/07/13 07:42:36;;;;;;;6.50;3.65;;;21.00;99.00;;;;;;5079151;28;20200;-83
2021/07/13 07:45:04;;;;;;;5.88;3.00;;;21.00;99.10;;;;;;5079053;28;20172;-83
2021/07/13 07:47:30;;;;;;;5.05;3.30;;;20.90;98.60;;;;;;5077292;28;20520;-83
2021/07/13 07:49:56;;;;;;;7.53;3.15;;;20.90;99.10;;;;;;5077253;28;20232;-83
2021/07/13 07:52:21;;;;;;;10.00;3.80;;;20.90;99.10;;;;;;5077415;28;20550;-83
2021/07/13 07:54:47;;;;;;;11.97;3.00;;;20.80;99.10;;;;;;5077309;28;20164;-83
2021/07/13 07:57:13;;;;;;;12.67;3.67;;;20.90;99.10;;;;;;5078284;28;20406;-83
2021/07/13 07:59:39;;;;;;;6.95;2.90;;;20.80;99.10;;;;;;5076796;28;20172;-83
2021/07/13 08:02:05;;;;;;;10.83;4.63;;;20.80;99.10;;;;;;5076661;28;20200;-83
2021/07/13 08:04:31;;;;;;;10.77;4.00;;;20.80;99.10;;;;;;5077723;28;20937;-83
2021/07/13 08:06:57;;;;;;;13.77;3.70;;;20.70;99.10;;;;;;5076590;28;20425;-83
2021/07/13 08:09:22;;;;;;;5.40;3.70;;;20.70;99.10;;;;;;5078041;28;20196;-83
2021/07/13 08:11:48;;;;;;;5.50;3.10;;;20.70;99.10;;;;;;5077641;28;20514;-83
2021/07/13 08:14:14;;;;;;;8.15;2.92;;;20.70;99.10;;;;;;5077614;28;20235;-83
2021/07/13 08:16:41;;;;;;;8.13;3.00;;;20.70;99.10;;;;;;5076726;28;20241;-83
2021/07/13 08:19:07;;;;;;;7.55;2.92;;;20.70;99.10;;;;;;5076388;28;20207;-83
2021/07/13 08:21:33;;;;;;;8.15;2.70;;;20.70;99.10;;;;;;5076111;28;20374;-83
2021/07/13 08:23:59;;;;;;;7.27;2.90;;;20.70;99.10;;;;;;5076544;28;20203;-83
2021/07/13 08:26:28;;;;;;;5.38;2.88;;;20.60;99.10;;;;;;5076142;28;20415;-83
2021/07/13 08:28:54;;;;;;;7.57;3.17;;;20.70;99.10;;;;;;5076151;28;20245;-83
2021/07/13 08:31:21;;;;;;;4.60;2.80;;;20.60;99.10;;;;;;5076431;28;20168;-83
2021/07/13 08:33:46;;;;;;;9.10;3.75;;;20.70;99.10;;;;;;5076893;28;20476;-83
2021/07/13 08:36:12;;;;;;;6.90;3.20;;;20.60;99.10;;;;;;5075638;28;20164;-83
2021/07/13 08:38:38;;;;;;;8.07;4.28;;;20.50;99.10;;;;;;5076356;28;20196;-83
2021/07/13 08:41:04;;;;;;;8.97;3.27;;;20.50;99.10;;;;;;5076757;28;20198;-83
2021/07/13 08:43:31;;;;;;;8.90;3.45;;;20.40;99.10;;;;;;5075960;28;20183;-83
2021/07/13 08:45:57;;;;;;;15.45;3.63;;;20.50;99.10;;;;;;5075620;28;20179;-83
2021/07/13 08:48:24;;;;;;;8.73;3.80;;;20.50;99.10;;;;;;5075981;28;20226;-84
2021/07/13 08:50:58;;;;;;;8.57;3.05;;;20.60;99.10;;;;;;5077320;28;20168;-84
2021/07/13 08:53:24;;;;;;;9.20;3.70;;;20.60;99.10;;;;;;5077161;28;20192;-83
2021/07/13 08:55:54;;;;;;;9.90;3.92;;;20.60;99.10;;;;;;5076492;28;20172;-84
2021/07/13 08:58:21;;;;;;;8.27;3.40;;;20.70;99.10;;;;;;5077189;28;20168;-83
2021/07/13 09:00:47;;;;;;;6.55;3.22;;;20.70;99.10;;;;;;5077518;28;20770;-84
2021/07/13 09:03:14;;;;;;;5.70;3.20;;;20.70;99.10;;;;;;5076415;28;20220;-83
2021/07/13 09:05:42;;;;;;;7.10;3.60;;;20.80;99.10;;;;;;5076633;28;20180;-83
2021/07/13 09:08:16;;;;;;;5.05;3.00;;;20.90;99.10;;;;;;5076675;28;20172;-84
2021/07/13 09:11:00;;;;;;;5.03;3.00;;;21.00;99.10;;;;;;5076541;28;20179;-83
2021/07/13 09:13:27;;;;;;;6.07;2.85;;;21.10;99.10;;;;;;5076102;28;20188;-84
2021/07/13 09:16:00;;;;;;;7.95;3.38;;;21.10;99.10;;;;;;5076338;28;20180;-83
2021/07/13 09:18:38;;;;;;;5.28;3.17;;;21.10;99.10;;;;;;5077656;28;20519;-84
2021/07/13 09:21:22;;;;;;;9.98;4.28;;;21.00;99.10;;;;;;5077679;28;20518;-83
2021/07/13 09:24:06;;;;;;;6.65;3.58;;;21.00;99.10;;;;;;5076819;28;20164;-83
2021/07/13 09:26:42;;;;;;;6.93;3.45;;;20.90;99.10;;;;;;5076346;28;20164;-83
2021/07/13 09:29:29;;;;;;;3.20;2.30;;;20.70;99.10;;;;;;5076918;28;20254;-83
2021/07/13 09:32:14;;;;;;;2.42;1.85;;;20.50;99.10;;;;;;5066293;28;20283;-83
2021/07/13 09:34:47;;;;;;;2.22;1.25;;;20.40;99.10;;;;;;5076300;28;20168;-81
2021/07/13 09:37:30;;;;;;;3.13;1.05;;;20.10;98.40;;;;;;5075991;28;20160;-83
2021/07/13 09:39:58;;;;;;;2.50;0.98;;;19.80;98.90;;;;;;5076633;28;20183;-83
2021/07/13 09:42:26;;;;;;;1.20;0.93;;;19.60;99.10;;;;;;5077286;28;20188;-83
2021/07/13 09:44:52;;;;;;;4.00;0.90;;;19.40;99.10;;;;;;5076692;28;20173;-83
2021/07/13 09:47:29;;;;;;;3.65;1.42;;;19.30;99.10;;;;;;5076887;28;20184;-83
2021/07/13 09:49:55;;;;;;;1.30;0.90;;;19.10;99.10;;;;;;5076354;28;20199;-83
2021/07/13 09:52:25;;;;;;;1.70;0.97;;;19.00;99.10;;;;;;5076100;28;20195;-83
2021/07/13 09:54:51;;;;;;;1.30;0.90;;;18.90;99.10;;;;;;5076291;28;20460;-83
2021/07/13 09:57:19;;;;;;;5.15;0.90;;;18.90;99.10;;;;;;5079759;28;20200;-84
2021/07/13 09:59:50;;;;;;;1.02;0.70;;;18.90;99.10;;;;;;5075759;28;20195;-83
2021/07/13 10:02:19;;;;;;;2.45;0.80;;;18.80;99.10;;;;;;5076753;28;20195;-81
2021/07/13 10:04:50;;;;;;;1.23;0.60;;;18.70;99.10;;;;;;5077499;28;20195;-82
2021/07/13 10:07:17;;;;;;;0.70;0.50;;;18.50;99.10;;;;;;5079084;28;20204;-82
2021/07/13 10:09:49;;;;;;;2.45;0.75;;;18.40;98.90;;;;;;5077238;28;20196;-82
2021/07/13 10:12:17;;;;;;;2.08;0.82;;;18.20;99.10;;;;;;5076077;28;20257;-82
2021/07/13 10:14:47;;;;;;;6.75;1.17;;;18.20;99.10;;;;;;5076539;28;20580;-83
2021/07/13 10:17:15;;;;;;;0.95;0.70;;;18.20;99.10;;;;;;5076594;28;20613;-83
2021/07/13 10:19:51;;;;;;;0.73;0.50;;;18.30;99.10;;;;;;5077581;28;20168;-83
2021/07/13 10:22:20;;;;;;;0.98;0.73;;;18.20;99.10;;;;;;5073502;28;20315;-84
2021/07/13 10:24:49;;;;;;;1.10;0.68;;;18.30;99.10;;;;;;5073200;28;20263;-85
2021/07/13 10:27:48;;;;;;;1.05;0.60;;;18.40;99.10;;;;;;5073227;28;20256;-85
2021/07/13 10:30:17;;;;;;;3.20;0.98;;;18.60;99.10;;;;;;5040863;28;20320;-85
2021/07/13 10:32:44;;;;;;;1.30;0.70;;;18.50;99.10;;;;;;5073174;28;20250;-85
2021/07/13 10:35:22;;;;;;;2.88;0.70;;;18.60;99.10;;;;;;5072646;28;20192;-84
2021/07/13 10:37:51;;;;;;;2.28;0.70;;;18.60;98.80;;;;;;5072670;28;20164;-84
2021/07/13 10:40:26;;;;;;;1.05;0.70;;;18.70;99.10;;;;;;5072931;28;20205;-84
2021/07/13 10:42:53;;;;;;;0.73;0.60;;;18.70;99.10;;;;;;5072872;28;20234;-85
2021/07/13 10:45:27;;;;;;;1.25;0.70;;;18.70;99.10;;;;;;5074181;28;20164;-85
2021/07/13 10:48:16;;;;;;;1.85;0.82;;;18.70;99.10;;;;;;5076324;28;20222;-85
2021/07/13 10:50:46;;;;;;;2.45;1.23;;;18.70;99.10;;;;;;5076573;28;20592;-85
2021/07/13 10:53:30;;;;;;;1.80;0.80;;;18.60;99.10;;;;;;5076403;28;20614;-85
2021/07/13 10:56:00;;;;;;;2.15;0.68;;;18.50;99.10;;;;;;5076532;28;20509;-85
2021/07/13 10:58:35;;;;;;;6.97;2.25;;;18.50;99.10;;;;;;5076378;28;20161;-84
2021/07/13 11:01:07;;;;;;;10.68;0.70;;;18.40;99.10;;;;;;5076232;28;20180;-85
2021/07/13 11:03:32;;;;;;;2.75;0.70;;;18.40;99.10;;;;;;5076059;28;20188;-86
2021/07/13 11:06:04;;;;;;;1.37;0.90;;;18.30;98.70;;;;;;5075986;28;20583;-86
2021/07/13 11:08:45;;;;;;;1.25;0.68;;;18.40;99.10;;;;;;5076108;28;20933;-87
2021/07/13 11:11:14;;;;;;;1.52;0.90;;;18.50;99.10;;;;;;5076131;28;20200;-86
2021/07/13 11:13:40;;;;;;;2.63;0.88;;;18.60;99.10;;;;;;5076418;28;20726;-86
2021/07/13 11:16:06;;;;;;;4.35;0.70;;;18.80;99.10;;;;;;5075767;28;20260;-86
2021/07/13 11:18:37;;;;;;;1.97;0.60;;;18.90;99.10;;;;;;5075495;28;20226;-85
2021/07/13 11:21:23;;;;;;;1.15;0.65;;;18.90;99.10;;;;;;5075608;28;20172;-86
2021/07/13 11:24:09;;;;;;;2.75;1.00;;;19.00;99.10;;;;;;5076180;28;20180;-86
2021/07/13 11:26:41;;;;;;;2.42;1.33;;;18.90;99.10;;;;;;5075779;28;20165;-86
2021/07/13 11:29:27;;;;;;;1.67;0.90;;;19.00;99.10;;;;;;5075910;28;20200;-85
2021/07/13 11:32:02;;;;;;;5.90;1.50;;;19.00;99.10;;;;;;5075516;28;20599;-86
2021/07/13 11:34:36;;;;;;;2.22;1.38;;;19.10;99.10;;;;;;5075941;28;20524;-85
2021/07/13 11:37:03;;;;;;;3.45;0.82;;;19.00;98.50;;;;;;5076489;28;20171;-86
2021/07/13 11:39:35;;;;;;;0.63;0.50;;;19.00;99.10;;;;;;5075613;28;20172;-86
2021/07/13 11:42:06;;;;;;;1.10;0.65;;;19.00;99.10;;;;;;5075429;28;20192;-86
2021/07/13 11:44:34;;;;;;;0.80;0.60;;;19.00;99.10;;;;;;5076449;28;20192;-86
2021/07/13 11:47:00;;;;;;;0.88;0.63;;;18.90;99.00;;;;;;5075848;28;20168;-85
2021/07/13 11:49:28;;;;;;;3.15;0.90;;;18.80;98.90;;;;;;5075367;28;20224;-85
2021/07/13 11:51:59;;;;;;;4.13;1.00;;;18.80;99.10;;;;;;5075826;28;20189;-84
2021/07/13 11:54:27;;;;;;;1.98;1.20;;;18.80;99.10;;;;;;5075569;28;20179;-86
2021/07/13 11:56:55;;;;;;;0.90;0.60;;;18.90;99.10;;;;;;5074835;28;20197;-85
2021/07/13 11:59:23;;;;;;;3.25;1.00;;;18.90;99.10;;;;;;5075647;28;20169;-85
2021/07/13 12:01:57;;;;;;;1.75;0.90;;;18.90;99.10;;;;;;5075029;28;20350;-86
2021/07/13 12:04:25;;;;;;;2.00;0.90;;;19.00;99.10;;;;;;5075236;28;20564;-85
2021/07/13 12:06:57;;;;;;;2.28;1.20;;;19.10;99.10;;;;;;5074991;28;20168;-85
2021/07/13 12:09:28;;;;;;;1.33;0.60;;;19.10;99.10;;;;;;5074937;28;20203;-85
2021/07/13 12:11:56;;;;;;;4.32;0.80;;;19.20;98.10;;;;;;5074582;28;20199;-86
2021/07/13 12:14:26;;;;;;;0.90;0.60;;;19.30;99.10;;;;;;5074667;28;20169;-86
2021/07/13 12:16:53;;;;;;;1.60;0.70;;;19.40;96.10;;;;;;5074482;28;20239;-87
2021/07/13 12:19:21;;;;;;;1.58;0.75;;;19.30;95.90;;;;;;5074635;28;20238;-87
2021/07/13 12:22:20;;;;;;;1.73;0.60;;;19.40;96.30;;;;;;5074304;28;20283;-86
2021/07/13 12:24:48;;;;;;;1.35;0.70;;;19.50;96.80;;;;;;5062754;28;20184;-86
2021/07/13 12:27:19;;;;;;;1.02;0.60;;;19.60;96.00;;;;;;5074194;28;20179;-86
2021/07/13 12:29:53;;;;;;;1.17;0.75;;;19.70;95.10;;;;;;5074226;28;20200;-86
2021/07/13 12:32:21;;;;;;;1.60;0.65;;;19.70;93.80;;;;;;5074720;28;20620;-86
2021/07/13 12:34:52;;;;;;;1.05;0.73;;;19.70;95.90;;;;;;5074564;28;20649;-87
2021/07/13 12:37:22;;;;;;;1.42;1.00;;;19.80;97.10;;;;;;5075041;28;20247;-87
2021/07/13 12:39:51;;;;;;;3.20;1.00;;;19.80;97.10;;;;;;5075519;28;20169;-84
2021/07/13 12:42:25;;;;;;;1.27;0.70;;;19.90;96.00;;;;;;5075121;28;20196;-84
2021/07/13 12:44:53;;;;;;;2.70;1.17;;;20.00;94.00;;;;;;5074783;28;20320;-85
2021/07/13 12:47:24;;;;;;;5.78;1.00;;;20.00;93.30;;;;;;5074520;28;20542;-84
2021/07/13 12:50:10;;;;;;;3.25;1.02;;;20.10;93.60;;;;;;5074663;28;20208;-84
2021/07/13 12:52:42;;;;;;;6.45;1.33;;;20.20;94.70;;;;;;5074862;28;20189;-85